sensor_id;sensor_type;location;lat;lon;timestamp;P1;durP1;ratioP1;P2;durP2;ratioP2
72601;SDS011;60644;55.858;37.390;2023-12-20T00:01:46;3.25;;;0.30;;
72601;SDS011;60644;55.858;37.390;2023-12-20T00:04:11;1.93;;;0.30;;
72601;SDS011;60644;55.858;37.390;2023-12-20T00:06:37;3.10;;;0.30;;
72601;SDS011;60644;55.858;37.390;2023-12-20T00:09:03;2.70;;;0.30;;
72601;SDS011;60644;55.858;37.390;2023-12-20T00:11:28;1.63;;;0.20;;
72601;SDS011;60644;55.858;37.390;2023-12-20T00:13:54;1.83;;;0.22;;
72601;SDS011;60644;55.858;37.390;2023-12-20T00:16:19;2.40;;;0.10;;
72601;SDS011;60644;55.858;37.390;2023-12-20T00:18:45;1.25;;;0.20;;
72601;SDS011;60644;55.858;37.390;2023-12-20T00:21:11;2.20;;;0.10;;
72601;SDS011;60644;55.858;37.390;2023-12-20T00:23:36;1.80;;;0.20;;
72601;SDS011;60644;55.858;37.390;2023-12-20T00:26:02;1.45;;;0.20;;
72601;SDS011;60644;55.858;37.390;2023-12-20T00:28:28;1.77;;;0.20;;
72601;SDS011;60644;55.858;37.390;2023-12-20T00:30:54;1.40;;;0.10;;
72601;SDS011;60644;55.858;37.390;2023-12-20T00:33:19;1.67;;;0.20;;
72601;SDS011;60644;55.858;37.390;2023-12-20T00:35:45;2.63;;;0.20;;
72601;SDS011;60644;55.858;37.390;2023-12-20T00:38:10;0.93;;;0.10;;
72601;SDS011;60644;55.858;37.390;2023-12-20T00:40:37;1.73;;;0.20;;
72601;SDS011;60644;55.858;37.390;2023-12-20T00:43:03;1.25;;;0.10;;
72601;SDS011;60644;55.858;37.390;2023-12-20T00:45:28;1.80;;;0.10;;
72601;SDS011;60644;55.858;37.390;2023-12-20T00:47:54;1.83;;;0.20;;
72601;SDS011;60644;55.858;37.390;2023-12-20T00:50:19;1.23;;;0.20;;
72601;SDS011;60644;55.858;37.390;2023-12-20T00:52:47;2.00;;;0.28;;
72601;SDS011;60644;55.858;37.390;2023-12-20T00:55:13;2.60;;;0.23;;
72601;SDS011;60644;55.858;37.390;2023-12-20T00:57:39;1.85;;;0.30;;
72601;SDS011;60644;55.858;37.390;2023-12-20T01:00:05;2.45;;;0.20;;
72601;SDS011;60644;55.858;37.390;2023-12-20T01:02:31;2.43;;;0.30;;
72601;SDS011;60644;55.858;37.390;2023-12-20T01:04:56;1.73;;;0.20;;
72601;SDS011;60644;55.858;37.390;2023-12-20T01:07:22;4.43;;;0.43;;
72601;SDS011;60644;55.858;37.390;2023-12-20T01:09:48;2.60;;;0.57;;
72601;SDS011;60644;55.858;37.390;2023-12-20T01:12:13;3.43;;;0.57;;
72601;SDS011;60644;55.858;37.390;2023-12-20T01:14:39;3.60;;;0.57;;
72601;SDS011;60644;55.858;37.390;2023-12-20T01:17:05;2.47;;;0.50;;
72601;SDS011;60644;55.858;37.390;2023-12-20T01:19:30;2.20;;;0.40;;
72601;SDS011;60644;55.858;37.390;2023-12-20T01:21:56;3.22;;;0.40;;
72601;SDS011;60644;55.858;37.390;2023-12-20T01:24:22;5.47;;;0.60;;
72601;SDS011;60644;55.858;37.390;2023-12-20T01:26:47;3.33;;;0.40;;
72601;SDS011;60644;55.858;37.390;2023-12-20T01:29:13;3.65;;;0.68;;
72601;SDS011;60644;55.858;37.390;2023-12-20T01:31:39;4.60;;;0.88;;
72601;SDS011;60644;55.858;37.390;2023-12-20T01:34:06;2.33;;;0.30;;
72601;SDS011;60644;55.858;37.390;2023-12-20T01:36:31;3.25;;;0.60;;
72601;SDS011;60644;55.858;37.390;2023-12-20T01:38:57;3.63;;;0.77;;
72601;SDS011;60644;55.858;37.390;2023-12-20T01:41:23;5.13;;;0.88;;
72601;SDS011;60644;55.858;37.390;2023-12-20T01:43:48;4.43;;;0.70;;
72601;SDS011;60644;55.858;37.390;2023-12-20T01:46:14;4.35;;;0.73;;
72601;SDS011;60644;55.858;37.390;2023-12-20T01:48:40;5.33;;;1.10;;
72601;SDS011;60644;55.858;37.390;2023-12-20T01:51:06;4.65;;;1.33;;
72601;SDS011;60644;55.858;37.390;2023-12-20T01:53:31;4.97;;;0.97;;
72601;SDS011;60644;55.858;37.390;2023-12-20T01:55:58;4.82;;;1.10;;
72601;SDS011;60644;55.858;37.390;2023-12-20T01:58:23;4.90;;;0.80;;
72601;SDS011;60644;55.858;37.390;2023-12-20T02:00:49;6.17;;;0.70;;
72601;SDS011;60644;55.858;37.390;2023-12-20T02:03:15;4.38;;;0.95;;
72601;SDS011;60644;55.858;37.390;2023-12-20T02:05:42;3.30;;;0.60;;
72601;SDS011;60644;55.858;37.390;2023-12-20T02:08:08;4.67;;;0.90;;
72601;SDS011;60644;55.858;37.390;2023-12-20T02:10:33;4.60;;;0.80;;
72601;SDS011;60644;55.858;37.390;2023-12-20T02:13:00;4.17;;;0.70;;
72601;SDS011;60644;55.858;37.390;2023-12-20T02:15:25;5.35;;;0.90;;
72601;SDS011;60644;55.858;37.390;2023-12-20T02:17:52;3.17;;;0.45;;
72601;SDS011;60644;55.858;37.390;2023-12-20T02:20:37;5.03;;;0.65;;
72601;SDS011;60644;55.858;37.390;2023-12-20T02:23:03;3.30;;;0.50;;
72601;SDS011;60644;55.858;37.390;2023-12-20T02:25:29;2.67;;;0.50;;
72601;SDS011;60644;55.858;37.390;2023-12-20T02:27:54;4.68;;;0.50;;
72601;SDS011;60644;55.858;37.390;2023-12-20T02:30:20;3.53;;;0.65;;
72601;SDS011;60644;55.858;37.390;2023-12-20T02:32:46;2.53;;;0.40;;
72601;SDS011;60644;55.858;37.390;2023-12-20T02:35:12;3.70;;;0.50;;
72601;SDS011;60644;55.858;37.390;2023-12-20T02:37:38;3.60;;;0.47;;
72601;SDS011;60644;55.858;37.390;2023-12-20T02:40:03;5.38;;;0.57;;
72601;SDS011;60644;55.858;37.390;2023-12-20T02:42:30;3.43;;;0.47;;
72601;SDS011;60644;55.858;37.390;2023-12-20T02:44:55;2.97;;;0.30;;
72601;SDS011;60644;55.858;37.390;2023-12-20T02:47:21;3.63;;;0.27;;
72601;SDS011;60644;55.858;37.390;2023-12-20T02:49:47;2.45;;;0.40;;
72601;SDS011;60644;55.858;37.390;2023-12-20T02:52:12;3.13;;;0.30;;
72601;SDS011;60644;55.858;37.390;2023-12-20T02:54:38;4.60;;;0.40;;
72601;SDS011;60644;55.858;37.390;2023-12-20T02:57:04;2.10;;;0.30;;
72601;SDS011;60644;55.858;37.390;2023-12-20T02:59:30;1.65;;;0.20;;
72601;SDS011;60644;55.858;37.390;2023-12-20T03:01:55;1.77;;;0.27;;
72601;SDS011;60644;55.858;37.390;2023-12-20T03:04:21;3.90;;;0.30;;
72601;SDS011;60644;55.858;37.390;2023-12-20T03:06:47;2.93;;;0.50;;
72601;SDS011;60644;55.858;37.390;2023-12-20T03:09:12;1.70;;;0.25;;
72601;SDS011;60644;55.858;37.390;2023-12-20T03:11:45;4.20;;;0.50;;
72601;SDS011;60644;55.858;37.390;2023-12-20T03:14:11;4.88;;;0.30;;
72601;SDS011;60644;55.858;37.390;2023-12-20T03:16:37;2.22;;;0.57;;
72601;SDS011;60644;55.858;37.390;2023-12-20T03:19:03;3.30;;;0.80;;
72601;SDS011;60644;55.858;37.390;2023-12-20T03:21:29;3.78;;;0.60;;
72601;SDS011;60644;55.858;37.390;2023-12-20T03:23:56;5.13;;;0.82;;
72601;SDS011;60644;55.858;37.390;2023-12-20T03:26:21;4.93;;;0.53;;
72601;SDS011;60644;55.858;37.390;2023-12-20T03:28:49;4.50;;;0.60;;
72601;SDS011;60644;55.858;37.390;2023-12-20T03:31:15;2.65;;;0.60;;
72601;SDS011;60644;55.858;37.390;2023-12-20T03:33:42;3.70;;;0.50;;
72601;SDS011;60644;55.858;37.390;2023-12-20T03:36:11;3.20;;;0.60;;
72601;SDS011;60644;55.858;37.390;2023-12-20T03:38:37;2.05;;;0.40;;
72601;SDS011;60644;55.858;37.390;2023-12-20T03:41:04;2.00;;;0.30;;
72601;SDS011;60644;55.858;37.390;2023-12-20T03:43:30;3.03;;;0.77;;
72601;SDS011;60644;55.858;37.390;2023-12-20T03:45:55;3.50;;;0.60;;
72601;SDS011;60644;55.858;37.390;2023-12-20T03:48:21;2.40;;;0.50;;
72601;SDS011;60644;55.858;37.390;2023-12-20T03:50:47;3.28;;;0.57;;
72601;SDS011;60644;55.858;37.390;2023-12-20T03:53:16;3.63;;;0.60;;
72601;SDS011;60644;55.858;37.390;2023-12-20T03:55:42;3.10;;;0.50;;
72601;SDS011;60644;55.858;37.390;2023-12-20T03:58:09;4.03;;;0.80;;
72601;SDS011;60644;55.858;37.390;2023-12-20T04:00:35;5.68;;;0.80;;
72601;SDS011;60644;55.858;37.390;2023-12-20T04:03:01;3.87;;;0.70;;
72601;SDS011;60644;55.858;37.390;2023-12-20T04:05:27;4.45;;;0.95;;
72601;SDS011;60644;55.858;37.390;2023-12-20T04:07:52;3.53;;;0.83;;
72601;SDS011;60644;55.858;37.390;2023-12-20T04:10:18;4.95;;;0.90;;
72601;SDS011;60644;55.858;37.390;2023-12-20T04:12:44;5.07;;;1.23;;
72601;SDS011;60644;55.858;37.390;2023-12-20T04:15:10;4.63;;;1.10;;
72601;SDS011;60644;55.858;37.390;2023-12-20T04:17:37;3.90;;;1.10;;
72601;SDS011;60644;55.858;37.390;2023-12-20T04:20:03;3.60;;;1.00;;
72601;SDS011;60644;55.858;37.390;2023-12-20T04:22:30;11.90;;;1.90;;
72601;SDS011;60644;55.858;37.390;2023-12-20T04:24:55;6.50;;;1.27;;
72601;SDS011;60644;55.858;37.390;2023-12-20T04:27:21;5.43;;;1.17;;
72601;SDS011;60644;55.858;37.390;2023-12-20T04:29:46;6.15;;;1.45;;
72601;SDS011;60644;55.858;37.390;2023-12-20T04:32:12;5.13;;;0.70;;
72601;SDS011;60644;55.858;37.390;2023-12-20T04:34:38;3.87;;;0.90;;
72601;SDS011;60644;55.858;37.390;2023-12-20T04:37:03;7.28;;;1.10;;
72601;SDS011;60644;55.858;37.390;2023-12-20T04:39:29;3.30;;;0.60;;
72601;SDS011;60644;55.858;37.390;2023-12-20T04:41:55;3.88;;;0.55;;
72601;SDS011;60644;55.858;37.390;2023-12-20T04:44:20;1.90;;;0.20;;
72601;SDS011;60644;55.858;37.390;2023-12-20T04:46:46;3.85;;;0.50;;
72601;SDS011;60644;55.858;37.390;2023-12-20T04:49:12;3.13;;;0.30;;
72601;SDS011;60644;55.858;37.390;2023-12-20T04:51:37;3.30;;;0.55;;
72601;SDS011;60644;55.858;37.390;2023-12-20T04:54:03;1.70;;;0.20;;
72601;SDS011;60644;55.858;37.390;2023-12-20T04:56:29;2.35;;;0.50;;
72601;SDS011;60644;55.858;37.390;2023-12-20T04:58:55;2.83;;;0.43;;
72601;SDS011;60644;55.858;37.390;2023-12-20T05:01:21;3.67;;;0.40;;
72601;SDS011;60644;55.858;37.390;2023-12-20T05:03:47;5.18;;;0.70;;
72601;SDS011;60644;55.858;37.390;2023-12-20T05:06:16;2.60;;;0.57;;
72601;SDS011;60644;55.858;37.390;2023-12-20T05:09:02;4.38;;;0.50;;
72601;SDS011;60644;55.858;37.390;2023-12-20T05:11:28;2.97;;;0.40;;
72601;SDS011;60644;55.858;37.390;2023-12-20T05:13:54;3.03;;;0.50;;
72601;SDS011;60644;55.858;37.390;2023-12-20T05:16:20;2.50;;;0.28;;
72601;SDS011;60644;55.858;37.390;2023-12-20T05:18:47;2.95;;;0.50;;
72601;SDS011;60644;55.858;37.390;2023-12-20T05:21:13;3.67;;;0.60;;
72601;SDS011;60644;55.858;37.390;2023-12-20T05:23:39;4.20;;;0.63;;
72601;SDS011;60644;55.858;37.390;2023-12-20T05:26:05;3.58;;;0.68;;
72601;SDS011;60644;55.858;37.390;2023-12-20T05:28:31;3.70;;;0.40;;
72601;SDS011;60644;55.858;37.390;2023-12-20T05:30:57;3.03;;;0.40;;
72601;SDS011;60644;55.858;37.390;2023-12-20T05:33:23;3.17;;;0.52;;
72601;SDS011;60644;55.858;37.390;2023-12-20T05:35:49;4.30;;;0.60;;
72601;SDS011;60644;55.858;37.390;2023-12-20T05:38:15;6.80;;;1.10;;
72601;SDS011;60644;55.858;37.390;2023-12-20T05:40:40;3.75;;;0.85;;
72601;SDS011;60644;55.858;37.390;2023-12-20T05:43:06;5.60;;;1.07;;
72601;SDS011;60644;55.858;37.390;2023-12-20T05:45:32;4.13;;;1.00;;
72601;SDS011;60644;55.858;37.390;2023-12-20T05:47:58;5.67;;;1.20;;
72601;SDS011;60644;55.858;37.390;2023-12-20T05:50:24;5.00;;;1.23;;
72601;SDS011;60644;55.858;37.390;2023-12-20T05:52:49;4.67;;;1.00;;
72601;SDS011;60644;55.858;37.390;2023-12-20T05:55:15;5.05;;;1.48;;
72601;SDS011;60644;55.858;37.390;2023-12-20T05:57:41;7.03;;;1.23;;
72601;SDS011;60644;55.858;37.390;2023-12-20T06:00:09;4.75;;;1.55;;
72601;SDS011;60644;55.858;37.390;2023-12-20T06:02:40;5.22;;;1.15;;
72601;SDS011;60644;55.858;37.390;2023-12-20T06:05:06;5.97;;;1.00;;
72601;SDS011;60644;55.858;37.390;2023-12-20T06:07:32;6.10;;;1.43;;
72601;SDS011;60644;55.858;37.390;2023-12-20T06:09:58;6.47;;;1.17;;
72601;SDS011;60644;55.858;37.390;2023-12-20T06:12:24;6.63;;;1.30;;
72601;SDS011;60644;55.858;37.390;2023-12-20T06:14:53;7.40;;;1.88;;
72601;SDS011;60644;55.858;37.390;2023-12-20T06:17:18;5.00;;;1.27;;
72601;SDS011;60644;55.858;37.390;2023-12-20T06:19:44;6.67;;;1.67;;
72601;SDS011;60644;55.858;37.390;2023-12-20T06:22:14;5.47;;;1.70;;
72601;SDS011;60644;55.858;37.390;2023-12-20T06:24:40;5.80;;;1.50;;
72601;SDS011;60644;55.858;37.390;2023-12-20T06:27:05;6.35;;;1.45;;
72601;SDS011;60644;55.858;37.390;2023-12-20T06:29:31;5.73;;;1.83;;
72601;SDS011;60644;55.858;37.390;2023-12-20T06:31:57;6.13;;;1.20;;
72601;SDS011;60644;55.858;37.390;2023-12-20T06:34:23;6.07;;;1.67;;
72601;SDS011;60644;55.858;37.390;2023-12-20T06:36:48;4.93;;;1.20;;
72601;SDS011;60644;55.858;37.390;2023-12-20T06:39:14;8.50;;;1.80;;
72601;SDS011;60644;55.858;37.390;2023-12-20T06:41:39;6.18;;;1.30;;
72601;SDS011;60644;55.858;37.390;2023-12-20T06:44:05;5.80;;;1.60;;
72601;SDS011;60644;55.858;37.390;2023-12-20T06:46:31;6.65;;;1.42;;
72601;SDS011;60644;55.858;37.390;2023-12-20T06:48:57;4.43;;;1.00;;
72601;SDS011;60644;55.858;37.390;2023-12-20T06:51:22;4.97;;;1.30;;
72601;SDS011;60644;55.858;37.390;2023-12-20T06:53:54;5.53;;;1.40;;
72601;SDS011;60644;55.858;37.390;2023-12-20T06:56:23;5.07;;;1.80;;
72601;SDS011;60644;55.858;37.390;2023-12-20T06:58:49;4.97;;;1.70;;
72601;SDS011;60644;55.858;37.390;2023-12-20T07:01:15;5.80;;;1.73;;
72601;SDS011;60644;55.858;37.390;2023-12-20T07:03:42;5.78;;;1.38;;
72601;SDS011;60644;55.858;37.390;2023-12-20T07:06:11;5.83;;;1.40;;
72601;SDS011;60644;55.858;37.390;2023-12-20T07:08:38;5.85;;;1.27;;
72601;SDS011;60644;55.858;37.390;2023-12-20T07:11:04;5.35;;;1.30;;
72601;SDS011;60644;55.858;37.390;2023-12-20T07:13:30;7.13;;;2.13;;
72601;SDS011;60644;55.858;37.390;2023-12-20T07:15:56;5.88;;;1.45;;
72601;SDS011;60644;55.858;37.390;2023-12-20T07:18:22;6.27;;;1.43;;
72601;SDS011;60644;55.858;37.390;2023-12-20T07:20:47;5.30;;;1.48;;
72601;SDS011;60644;55.858;37.390;2023-12-20T07:23:14;5.90;;;1.50;;
72601;SDS011;60644;55.858;37.390;2023-12-20T07:25:40;5.32;;;1.17;;
72601;SDS011;60644;55.858;37.390;2023-12-20T07:28:05;5.93;;;1.20;;
72601;SDS011;60644;55.858;37.390;2023-12-20T07:30:31;6.10;;;1.70;;
72601;SDS011;60644;55.858;37.390;2023-12-20T07:32:57;5.15;;;1.27;;
72601;SDS011;60644;55.858;37.390;2023-12-20T07:35:25;5.97;;;1.37;;
72601;SDS011;60644;55.858;37.390;2023-12-20T07:37:51;5.60;;;1.52;;
72601;SDS011;60644;55.858;37.390;2023-12-20T07:40:17;4.95;;;0.98;;
72601;SDS011;60644;55.858;37.390;2023-12-20T07:42:44;5.63;;;1.20;;
72601;SDS011;60644;55.858;37.390;2023-12-20T07:45:09;5.25;;;1.33;;
72601;SDS011;60644;55.858;37.390;2023-12-20T07:47:38;7.50;;;1.35;;
72601;SDS011;60644;55.858;37.390;2023-12-20T07:50:04;7.77;;;1.10;;
72601;SDS011;60644;55.858;37.390;2023-12-20T07:52:30;4.40;;;1.15;;
72601;SDS011;60644;55.858;37.390;2023-12-20T07:54:56;4.63;;;1.43;;
72601;SDS011;60644;55.858;37.390;2023-12-20T07:57:21;4.63;;;0.98;;
72601;SDS011;60644;55.858;37.390;2023-12-20T07:59:47;5.27;;;1.50;;
72601;SDS011;60644;55.858;37.390;2023-12-20T08:02:13;4.57;;;0.82;;
72601;SDS011;60644;55.858;37.390;2023-12-20T08:04:38;5.57;;;1.03;;
72601;SDS011;60644;55.858;37.390;2023-12-20T08:07:04;4.47;;;0.90;;
72601;SDS011;60644;55.858;37.390;2023-12-20T08:09:30;5.83;;;1.30;;
72601;SDS011;60644;55.858;37.390;2023-12-20T08:11:57;4.60;;;0.70;;
72601;SDS011;60644;55.858;37.390;2023-12-20T08:14:25;5.82;;;1.20;;
72601;SDS011;60644;55.858;37.390;2023-12-20T08:17:00;4.27;;;0.87;;
72601;SDS011;60644;55.858;37.390;2023-12-20T08:19:26;3.63;;;0.80;;
72601;SDS011;60644;55.858;37.390;2023-12-20T08:21:52;5.03;;;0.90;;
72601;SDS011;60644;55.858;37.390;2023-12-20T08:24:26;4.27;;;1.00;;
72601;SDS011;60644;55.858;37.390;2023-12-20T08:26:52;5.45;;;1.02;;
72601;SDS011;60644;55.858;37.390;2023-12-20T08:29:18;4.37;;;1.07;;
72601;SDS011;60644;55.858;37.390;2023-12-20T08:31:44;3.15;;;0.80;;
72601;SDS011;60644;55.858;37.390;2023-12-20T08:34:10;5.18;;;0.60;;
72601;SDS011;60644;55.858;37.390;2023-12-20T08:36:37;3.57;;;0.63;;
72601;SDS011;60644;55.858;37.390;2023-12-20T08:39:03;4.18;;;0.77;;
72601;SDS011;60644;55.858;37.390;2023-12-20T08:41:32;3.67;;;0.60;;
72601;SDS011;60644;55.858;37.390;2023-12-20T08:43:57;6.00;;;0.90;;
72601;SDS011;60644;55.858;37.390;2023-12-20T08:46:23;5.00;;;0.73;;
72601;SDS011;60644;55.858;37.390;2023-12-20T08:48:49;6.60;;;0.60;;
72601;SDS011;60644;55.858;37.390;2023-12-20T08:51:23;4.93;;;0.80;;
72601;SDS011;60644;55.858;37.390;2023-12-20T08:53:51;3.95;;;0.80;;
72601;SDS011;60644;55.858;37.390;2023-12-20T08:56:17;4.93;;;1.05;;
72601;SDS011;60644;55.858;37.390;2023-12-20T08:58:43;3.95;;;0.80;;
72601;SDS011;60644;55.858;37.390;2023-12-20T09:01:09;4.23;;;0.87;;
72601;SDS011;60644;55.858;37.390;2023-12-20T09:03:35;3.47;;;0.77;;
72601;SDS011;60644;55.858;37.390;2023-12-20T09:06:00;5.23;;;0.80;;
72601;SDS011;60644;55.858;37.390;2023-12-20T09:08:26;4.07;;;0.98;;
72601;SDS011;60644;55.858;37.390;2023-12-20T09:10:52;4.77;;;1.03;;
72601;SDS011;60644;55.858;37.390;2023-12-20T09:13:17;4.10;;;0.90;;
72601;SDS011;60644;55.858;37.390;2023-12-20T09:15:43;3.70;;;0.90;;
72601;SDS011;60644;55.858;37.390;2023-12-20T09:18:08;5.35;;;1.30;;
72601;SDS011;60644;55.858;37.390;2023-12-20T09:20:35;6.30;;;1.40;;
72601;SDS011;60644;55.858;37.390;2023-12-20T09:23:00;5.50;;;1.40;;
72601;SDS011;60644;55.858;37.390;2023-12-20T09:25:26;4.00;;;0.83;;
72601;SDS011;60644;55.858;37.390;2023-12-20T09:27:55;3.60;;;0.65;;
72601;SDS011;60644;55.858;37.390;2023-12-20T09:30:21;4.93;;;1.20;;
72601;SDS011;60644;55.858;37.390;2023-12-20T09:32:46;4.17;;;0.90;;
72601;SDS011;60644;55.858;37.390;2023-12-20T09:35:12;4.50;;;0.80;;
72601;SDS011;60644;55.858;37.390;2023-12-20T09:37:38;4.67;;;1.00;;
72601;SDS011;60644;55.858;37.390;2023-12-20T09:40:06;5.88;;;1.48;;
72601;SDS011;60644;55.858;37.390;2023-12-20T09:44:59;6.13;;;1.20;;
72601;SDS011;60644;55.858;37.390;2023-12-20T09:47:30;4.07;;;1.10;;
72601;SDS011;60644;55.858;37.390;2023-12-20T09:49:56;4.40;;;1.10;;
72601;SDS011;60644;55.858;37.390;2023-12-20T09:52:22;2.88;;;0.52;;
72601;SDS011;60644;55.858;37.390;2023-12-20T09:54:48;3.58;;;0.90;;
72601;SDS011;60644;55.858;37.390;2023-12-20T09:57:15;3.88;;;0.65;;
72601;SDS011;60644;55.858;37.390;2023-12-20T09:59:40;3.87;;;0.67;;
72601;SDS011;60644;55.858;37.390;2023-12-20T10:02:07;11.85;;;1.23;;
72601;SDS011;60644;55.858;37.390;2023-12-20T10:04:35;3.80;;;0.90;;
72601;SDS011;60644;55.858;37.390;2023-12-20T10:07:02;4.47;;;1.10;;
72601;SDS011;60644;55.858;37.390;2023-12-20T10:09:29;5.25;;;1.30;;
72601;SDS011;60644;55.858;37.390;2023-12-20T10:11:56;3.73;;;0.53;;
72601;SDS011;60644;55.858;37.390;2023-12-20T10:14:23;4.68;;;0.77;;
72601;SDS011;60644;55.858;37.390;2023-12-20T10:16:48;4.20;;;1.05;;
72601;SDS011;60644;55.858;37.390;2023-12-20T10:19:16;5.97;;;1.40;;
72601;SDS011;60644;55.858;37.390;2023-12-20T10:21:42;4.05;;;0.80;;
72601;SDS011;60644;55.858;37.390;2023-12-20T10:24:07;3.97;;;0.80;;
72601;SDS011;60644;55.858;37.390;2023-12-20T10:26:33;5.10;;;0.93;;
72601;SDS011;60644;55.858;37.390;2023-12-20T10:29:02;3.67;;;0.83;;
72601;SDS011;60644;55.858;37.390;2023-12-20T10:31:30;3.60;;;0.93;;
72601;SDS011;60644;55.858;37.390;2023-12-20T10:33:56;4.03;;;1.33;;
72601;SDS011;60644;55.858;37.390;2023-12-20T10:36:23;4.28;;;1.20;;
72601;SDS011;60644;55.858;37.390;2023-12-20T10:38:49;3.93;;;0.90;;
72601;SDS011;60644;55.858;37.390;2023-12-20T10:41:15;3.78;;;0.90;;
72601;SDS011;60644;55.858;37.390;2023-12-20T10:43:43;3.60;;;0.70;;
72601;SDS011;60644;55.858;37.390;2023-12-20T10:46:09;4.10;;;0.70;;
72601;SDS011;60644;55.858;37.390;2023-12-20T10:48:35;3.37;;;0.70;;
72601;SDS011;60644;55.858;37.390;2023-12-20T10:51:01;3.75;;;0.80;;
72601;SDS011;60644;55.858;37.390;2023-12-20T10:53:27;3.75;;;0.93;;
72601;SDS011;60644;55.858;37.390;2023-12-20T10:55:53;4.27;;;0.70;;
72601;SDS011;60644;55.858;37.390;2023-12-20T10:58:20;4.80;;;0.80;;
72601;SDS011;60644;55.858;37.390;2023-12-20T11:00:47;3.42;;;0.82;;
72601;SDS011;60644;55.858;37.390;2023-12-20T11:03:15;3.45;;;0.50;;
72601;SDS011;60644;55.858;37.390;2023-12-20T11:10:51;7.82;;;1.50;;
72601;SDS011;60644;55.858;37.390;2023-12-20T11:16:03;3.42;;;0.75;;
72601;SDS011;60644;55.858;37.390;2023-12-20T11:18:29;3.77;;;0.77;;
72601;SDS011;60644;55.858;37.390;2023-12-20T11:20:56;3.30;;;0.68;;
72601;SDS011;60644;55.858;37.390;2023-12-20T11:23:25;3.03;;;0.40;;
72601;SDS011;60644;55.858;37.390;2023-12-20T11:25:54;2.97;;;0.60;;
72601;SDS011;60644;55.858;37.390;2023-12-20T11:28:22;3.28;;;0.50;;
72601;SDS011;60644;55.858;37.390;2023-12-20T11:30:50;3.60;;;0.50;;
72601;SDS011;60644;55.858;37.390;2023-12-20T11:33:16;1.88;;;0.30;;
72601;SDS011;60644;55.858;37.390;2023-12-20T11:35:42;2.07;;;0.40;;
72601;SDS011;60644;55.858;37.390;2023-12-20T11:38:10;3.70;;;0.50;;
72601;SDS011;60644;55.858;37.390;2023-12-20T11:40:36;3.30;;;0.57;;
72601;SDS011;60644;55.858;37.390;2023-12-20T11:43:03;2.88;;;0.43;;
72601;SDS011;60644;55.858;37.390;2023-12-20T11:45:29;3.08;;;0.43;;
72601;SDS011;60644;55.858;37.390;2023-12-20T11:47:56;3.00;;;0.47;;
72601;SDS011;60644;55.858;37.390;2023-12-20T11:50:23;2.42;;;0.30;;
72601;SDS011;60644;55.858;37.390;2023-12-20T11:52:49;4.35;;;0.40;;
72601;SDS011;60644;55.858;37.390;2023-12-20T11:55:15;2.17;;;0.30;;
72601;SDS011;60644;55.858;37.390;2023-12-20T11:57:41;3.37;;;0.40;;
72601;SDS011;60644;55.858;37.390;2023-12-20T12:00:07;3.22;;;0.40;;
72601;SDS011;60644;55.858;37.390;2023-12-20T12:02:40;2.67;;;0.40;;
72601;SDS011;60644;55.858;37.390;2023-12-20T12:05:06;2.78;;;0.30;;
72601;SDS011;60644;55.858;37.390;2023-12-20T12:07:31;3.07;;;0.40;;
72601;SDS011;60644;55.858;37.390;2023-12-20T12:09:57;2.80;;;0.40;;
72601;SDS011;60644;55.858;37.390;2023-12-20T12:12:24;2.35;;;0.20;;
72601;SDS011;60644;55.858;37.390;2023-12-20T12:14:50;2.35;;;0.57;;
72601;SDS011;60644;55.858;37.390;2023-12-20T12:17:16;2.77;;;0.30;;
72601;SDS011;60644;55.858;37.390;2023-12-20T12:19:43;2.13;;;0.22;;
72601;SDS011;60644;55.858;37.390;2023-12-20T12:22:10;2.57;;;0.30;;
72601;SDS011;60644;55.858;37.390;2023-12-20T12:24:39;2.75;;;0.20;;
72601;SDS011;60644;55.858;37.390;2023-12-20T12:27:07;3.20;;;0.30;;
72601;SDS011;60644;55.858;37.390;2023-12-20T12:29:36;2.40;;;0.20;;
72601;SDS011;60644;55.858;37.390;2023-12-20T12:32:05;3.08;;;0.30;;
72601;SDS011;60644;55.858;37.390;2023-12-20T12:34:32;2.07;;;0.30;;
72601;SDS011;60644;55.858;37.390;2023-12-20T12:36:58;2.15;;;0.28;;
72601;SDS011;60644;55.858;37.390;2023-12-20T12:39:24;5.00;;;0.45;;
72601;SDS011;60644;55.858;37.390;2023-12-20T12:41:53;1.45;;;0.20;;
72601;SDS011;60644;55.858;37.390;2023-12-20T12:44:19;1.93;;;0.20;;
72601;SDS011;60644;55.858;37.390;2023-12-20T12:46:45;2.67;;;0.25;;
72601;SDS011;60644;55.858;37.390;2023-12-20T12:49:11;2.53;;;0.20;;
72601;SDS011;60644;55.858;37.390;2023-12-20T12:51:37;2.07;;;0.20;;
72601;SDS011;60644;55.858;37.390;2023-12-20T12:54:02;1.45;;;0.10;;
72601;SDS011;60644;55.858;37.390;2023-12-20T12:56:28;2.10;;;0.20;;
72601;SDS011;60644;55.858;37.390;2023-12-20T12:58:54;1.77;;;0.20;;
72601;SDS011;60644;55.858;37.390;2023-12-20T13:01:20;3.35;;;0.20;;
72601;SDS011;60644;55.858;37.390;2023-12-20T13:03:46;3.97;;;0.30;;
72601;SDS011;60644;55.858;37.390;2023-12-20T13:06:12;2.35;;;0.20;;
72601;SDS011;60644;55.858;37.390;2023-12-20T13:08:37;2.40;;;0.30;;
72601;SDS011;60644;55.858;37.390;2023-12-20T13:11:03;2.40;;;0.43;;
72601;SDS011;60644;55.858;37.390;2023-12-20T13:13:30;2.20;;;0.32;;
72601;SDS011;60644;55.858;37.390;2023-12-20T13:15:56;1.80;;;0.10;;
72601;SDS011;60644;55.858;37.390;2023-12-20T13:18:25;2.35;;;0.15;;
72601;SDS011;60644;55.858;37.390;2023-12-20T13:20:50;2.17;;;0.20;;
72601;SDS011;60644;55.858;37.390;2023-12-20T13:23:16;1.83;;;0.40;;
72601;SDS011;60644;55.858;37.390;2023-12-20T13:25:43;2.00;;;0.20;;
72601;SDS011;60644;55.858;37.390;2023-12-20T13:28:10;4.80;;;0.50;;
72601;SDS011;60644;55.858;37.390;2023-12-20T13:30:36;2.63;;;0.30;;
72601;SDS011;60644;55.858;37.390;2023-12-20T13:33:02;3.97;;;0.43;;
72601;SDS011;60644;55.858;37.390;2023-12-20T13:35:28;2.30;;;0.40;;
72601;SDS011;60644;55.858;37.390;2023-12-20T13:37:53;2.53;;;0.30;;
72601;SDS011;60644;55.858;37.390;2023-12-20T13:40:19;2.90;;;0.30;;
72601;SDS011;60644;55.858;37.390;2023-12-20T13:42:44;3.33;;;0.45;;
72601;SDS011;60644;55.858;37.390;2023-12-20T13:45:10;3.45;;;0.60;;
72601;SDS011;60644;55.858;37.390;2023-12-20T13:47:36;3.17;;;0.60;;
72601;SDS011;60644;55.858;37.390;2023-12-20T13:50:02;2.93;;;0.60;;
72601;SDS011;60644;55.858;37.390;2023-12-20T13:52:29;4.22;;;0.50;;
72601;SDS011;60644;55.858;37.390;2023-12-20T13:54:55;4.25;;;0.80;;
72601;SDS011;60644;55.858;37.390;2023-12-20T13:57:20;5.23;;;0.60;;
72601;SDS011;60644;55.858;37.390;2023-12-20T13:59:46;4.13;;;0.77;;
72601;SDS011;60644;55.858;37.390;2023-12-20T14:02:12;3.42;;;0.88;;
72601;SDS011;60644;55.858;37.390;2023-12-20T14:04:37;3.60;;;0.40;;
72601;SDS011;60644;55.858;37.390;2023-12-20T14:07:05;3.30;;;0.70;;
72601;SDS011;60644;55.858;37.390;2023-12-20T14:09:33;3.08;;;0.50;;
72601;SDS011;60644;55.858;37.390;2023-12-20T14:11:59;3.60;;;0.57;;
72601;SDS011;60644;55.858;37.390;2023-12-20T14:14:25;3.00;;;0.65;;
72601;SDS011;60644;55.858;37.390;2023-12-20T14:16:50;5.78;;;0.80;;
72601;SDS011;60644;55.858;37.390;2023-12-20T14:19:16;3.67;;;0.60;;
72601;SDS011;60644;55.858;37.390;2023-12-20T14:21:42;4.50;;;0.63;;
72601;SDS011;60644;55.858;37.390;2023-12-20T14:24:12;3.05;;;0.60;;
72601;SDS011;60644;55.858;37.390;2023-12-20T14:26:43;3.42;;;0.70;;
72601;SDS011;60644;55.858;37.390;2023-12-20T14:29:09;3.80;;;0.80;;
72601;SDS011;60644;55.858;37.390;2023-12-20T14:31:35;3.90;;;0.93;;
72601;SDS011;60644;55.858;37.390;2023-12-20T14:34:02;5.13;;;0.80;;
72601;SDS011;60644;55.858;37.390;2023-12-20T14:36:29;7.82;;;1.15;;
72601;SDS011;60644;55.858;37.390;2023-12-20T14:38:58;4.28;;;0.80;;